Time;durP1;ratioP1;P1;durP2;ratioP2;P2;SDS_P1;SDS_P2;PMS_P1;PMS_P2;Temp;Humidity;BMP_temperature;BMP_pressure;BME280_temperature;BME280_humidity;BME280_pressure;Samples;Min_cycle;Max_cycle;Signal;HPM_P1;HPM_P2
2022/08/08 00:01:54;;;;;;;10.27;2.60;;;13.40;99.90;;;;;;5089092;28;20409;-69
2022/08/08 00:04:44;;;;;;;8.93;2.78;;;13.30;99.90;;;;;;5067195;28;20069;-69
2022/08/08 00:07:42;;;;;;;5.30;2.90;;;13.40;99.90;;;;;;5064434;28;20035;-69
2022/08/08 00:10:16;;;;;;;7.00;3.15;;;13.30;99.90;;;;;;5084954;28;20524;-69
2022/08/08 00:12:50;;;;;;;6.40;3.00;;;13.40;99.90;;;;;;5086089;28;20043;-70
2022/08/08 00:15:20;;;;;;;7.93;3.13;;;13.30;99.90;;;;;;5085254;28;20047;-69
2022/08/08 00:18:11;;;;;;;7.82;3.63;;;13.30;99.90;;;;;;5069332;28;20146;-69
2022/08/08 00:20:42;;;;;;;7.47;3.67;;;13.30;99.90;;;;;;5069387;28;20047;-69
2022/08/08 00:23:15;;;;;;;5.22;3.60;;;13.20;99.90;;;;;;5068780;28;20762;-68
2022/08/08 00:25:52;;;;;;;6.22;4.25;;;13.20;99.90;;;;;;5084488;28;20920;-68
2022/08/08 00:28:34;;;;;;;8.63;4.82;;;13.20;99.90;;;;;;5087350;28;20043;-69
2022/08/08 00:31:01;;;;;;;7.88;4.35;;;13.20;99.90;;;;;;5085790;28;20111;-69
2022/08/08 00:33:35;;;;;;;7.30;4.60;;;13.20;99.90;;;;;;5068926;28;20537;-69
2022/08/08 00:36:27;;;;;;;9.13;4.65;;;13.20;99.90;;;;;;5067096;28;20043;-69
2022/08/08 00:39:10;;;;;;;7.70;4.32;;;13.30;99.90;;;;;;5087280;28;20047;-69
2022/08/08 00:42:03;;;;;;;8.93;4.32;;;13.20;99.90;;;;;;5085257;28;20100;-69
2022/08/08 00:45:12;;;;;;;9.40;4.63;;;13.20;99.90;;;;;;5086237;28;20031;-69
2022/08/08 00:47:53;;;;;;;9.32;4.20;;;13.20;99.90;;;;;;5084761;28;20070;-69
2022/08/08 00:50:25;;;;;;;8.18;4.15;;;13.20;99.90;;;;;;5085799;28;20049;-69
2022/08/08 00:53:06;;;;;;;10.75;4.25;;;13.20;99.90;;;;;;5069679;28;20910;-69
2022/08/08 00:55:45;;;;;;;8.73;3.78;;;13.20;99.90;;;;;;5104952;27;20050;-69
2022/08/08 00:58:31;;;;;;;4.50;3.53;;;13.30;99.90;;;;;;5064061;28;20868;-69
2022/08/08 01:01:02;;;;;;;7.63;4.10;;;13.40;99.90;;;;;;5085975;28;20046;-70
2022/08/08 01:03:37;;;;;;;6.18;3.88;;;13.40;99.90;;;;;;5085419;28;20322;-69
2022/08/08 01:06:21;;;;;;;8.50;4.10;;;13.50;99.90;;;;;;5086111;28;20036;-69
2022/08/08 01:09:15;;;;;;;6.80;4.18;;;13.60;99.90;;;;;;5063569;28;20567;-69
2022/08/08 01:12:16;;;;;;;8.55;4.78;;;13.70;99.90;;;;;;5083692;28;20067;-69
2022/08/08 01:15:07;;;;;;;6.80;4.38;;;13.70;99.90;;;;;;5083834;28;20066;-69
2022/08/08 01:18:09;;;;;;;8.30;4.32;;;13.80;99.90;;;;;;5067878;28;20100;-69
2022/08/08 01:21:13;;;;;;;11.00;4.63;;;13.80;99.90;;;;;;5085184;28;20055;-69
2022/08/08 01:24:02;;;;;;;7.32;4.10;;;13.70;99.90;;;;;;5085584;28;20625;-69
2022/08/08 01:26:34;;;;;;;7.90;4.57;;;13.70;99.90;;;;;;5084897;28;20532;-69
2022/08/08 01:29:37;;;;;;;10.13;5.07;;;13.60;99.90;;;;;;5067778;28;20122;-68
2022/08/08 01:32:27;;;;;;;7.22;5.00;;;13.60;99.90;;;;;;5085236;28;20055;-69
2022/08/08 01:35:19;;;;;;;7.28;5.15;;;13.60;99.90;;;;;;5061087;28;20505;-69
2022/08/08 01:37:54;;;;;;;8.55;4.80;;;13.70;99.90;;;;;;5070210;28;20043;-69
2022/08/08 01:40:42;;;;;;;6.95;4.75;;;13.70;99.90;;;;;;5060513;28;20040;-69
2022/08/08 01:43:38;;;;;;;10.00;4.70;;;13.70;99.90;;;;;;5088277;28;20503;-69
2022/08/08 01:46:24;;;;;;;7.82;4.55;;;13.80;99.90;;;;;;5062655;28;20044;-69
2022/08/08 01:48:58;;;;;;;8.80;4.80;;;13.80;99.90;;;;;;5075099;28;20302;-69
2022/08/08 01:51:42;;;;;;;9.13;4.57;;;13.90;99.90;;;;;;5086037;28;20044;-69
2022/08/08 01:54:23;;;;;;;5.70;4.25;;;13.90;99.90;;;;;;5084342;28;20044;-69
2022/08/08 01:57:16;;;;;;;6.72;4.00;;;14.00;99.90;;;;;;5067172;28;20035;-69
2022/08/08 02:00:07;;;;;;;11.23;4.73;;;14.10;99.90;;;;;;5071099;28;20090;-69
2022/08/08 02:02:56;;;;;;;7.93;4.30;;;14.10;99.90;;;;;;5090962;28;20148;-69
2022/08/08 02:05:44;;;;;;;8.55;4.32;;;14.20;99.90;;;;;;5089491;28;20055;-69
2022/08/08 02:08:31;;;;;;;8.00;4.35;;;14.30;99.90;;;;;;5088599;28;20039;-69
2022/08/08 02:11:00;;;;;;;7.47;3.83;;;14.30;99.90;;;;;;5072128;28;20043;-69
2022/08/08 02:13:46;;;;;;;9.38;4.07;;;14.30;99.90;;;;;;5088723;28;20148;-69
2022/08/08 02:16:22;;;;;;;7.88;3.72;;;14.40;99.90;;;;;;5082457;28;20229;-69
2022/08/08 02:19:07;;;;;;;6.50;3.67;;;14.50;99.90;;;;;;5070465;28;20054;-70
2022/08/08 02:25:28;;;;;;;7.05;3.10;;;14.50;99.90;;;;;;5085969;28;20186;-70
2022/08/08 02:28:04;;;;;;;9.38;3.97;;;14.50;99.90;;;;;;5088826;28;20431;-67
2022/08/08 02:30:56;;;;;;;8.57;3.72;;;14.60;99.90;;;;;;5071208;28;20126;-70
2022/08/08 02:33:55;;;;;;;8.60;3.22;;;14.70;99.90;;;;;;5089561;28;20142;-70
2022/08/08 02:36:36;;;;;;;9.35;3.95;;;14.70;99.90;;;;;;5089090;28;20051;-70
2022/08/08 02:39:35;;;;;;;5.45;3.42;;;14.70;99.90;;;;;;5062760;28;20044;-69
2022/08/08 02:42:29;;;;;;;7.22;3.72;;;14.80;99.90;;;;;;5062552;28;20039;-68
2022/08/08 02:45:21;;;;;;;10.52;4.00;;;14.80;99.90;;;;;;5064046;28;20048;-69
2022/08/08 02:48:20;;;;;;;11.45;4.43;;;14.80;99.90;;;;;;5088396;28;20062;-68
2022/08/08 02:51:13;;;;;;;8.50;4.47;;;14.80;99.90;;;;;;5062746;28;20042;-69
2022/08/08 02:54:13;;;;;;;9.07;4.73;;;14.90;99.90;;;;;;5065281;28;20086;-69
2022/08/08 02:56:53;;;;;;;9.77;4.28;;;14.90;99.90;;;;;;5087091;28;20039;-69
2022/08/08 02:59:54;;;;;;;6.47;4.00;;;14.90;99.90;;;;;;5086421;28;20051;-69
2022/08/08 03:02:48;;;;;;;9.77;4.43;;;14.90;99.90;;;;;;5048833;28;20475;-68
2022/08/08 03:05:19;;;;;;;7.95;4.30;;;14.90;99.90;;;;;;5086216;28;20039;-68
2022/08/08 03:08:06;;;;;;;10.30;4.82;;;14.90;99.90;;;;;;5086889;28;20543;-69
2022/08/08 03:10:53;;;;;;;9.10;4.53;;;15.00;99.90;;;;;;5086541;28;20050;-69
2022/08/08 03:13:49;;;;;;;10.68;4.82;;;15.00;99.90;;;;;;5087273;28;20683;-69
2022/08/08 03:16:19;;;;;;;7.75;4.63;;;15.00;99.90;;;;;;5088262;28;20488;-69
2022/08/08 03:19:14;;;;;;;10.02;4.78;;;15.00;99.90;;;;;;5086759;28;20039;-68
2022/08/08 03:21:40;;;;;;;7.53;5.00;;;15.00;99.90;;;;;;5071740;28;20549;-69
2022/08/08 03:24:06;;;;;;;6.60;4.30;;;15.00;99.90;;;;;;5088080;28;20043;-69
2022/08/08 03:26:38;;;;;;;8.57;4.45;;;15.00;99.90;;;;;;5063555;28;20298;-69
2022/08/08 03:29:08;;;;;;;9.80;4.72;;;15.00;99.90;;;;;;5081447;28;20075;-68
2022/08/08 03:34:18;;;;;;;7.88;4.90;;;15.00;99.90;;;;;;5088061;28;20103;-69
2022/08/08 03:36:44;;;;;;;10.18;4.50;;;15.00;99.90;;;;;;5088869;28;20043;-69
2022/08/08 03:39:11;;;;;;;8.35;4.85;;;15.00;99.90;;;;;;5087733;28;20134;-69
2022/08/08 03:41:37;;;;;;;8.70;5.15;;;15.00;99.90;;;;;;5085443;28;20036;-69
2022/08/08 03:44:03;;;;;;;11.52;4.78;;;15.00;99.90;;;;;;5070461;28;20043;-69
2022/08/08 03:46:29;;;;;;;7.63;4.80;;;15.10;99.90;;;;;;5086982;28;20117;-69
2022/08/08 03:48:59;;;;;;;6.07;4.47;;;15.10;99.90;;;;;;5064058;28;20088;-69
2022/08/08 03:51:25;;;;;;;10.95;5.00;;;15.00;99.90;;;;;;5076899;28;20306;-69
2022/08/08 03:53:52;;;;;;;13.50;5.30;;;15.10;99.90;;;;;;5060877;28;20047;-69
2022/08/08 03:56:19;;;;;;;8.82;4.35;;;15.10;99.90;;;;;;5071149;28;20642;-69
2022/08/08 03:58:52;;;;;;;9.48;5.20;;;15.00;99.90;;;;;;5073480;27;20137;-70
2022/08/08 04:01:19;;;;;;;;;;;15.00;99.90;;;;;;5074984;27;20367;-68
2022/08/08 04:03:46;;;;;;;9.50;4.95;;;15.00;99.90;;;;;;5089181;27;20554;-68
2022/08/08 04:06:13;;;;;;;10.57;4.57;;;15.00;99.90;;;;;;5089416;27;20122;-68
2022/08/08 04:08:39;;;;;;;9.02;4.70;;;15.00;99.90;;;;;;5090898;27;20595;-68
2022/08/08 04:11:06;;;;;;;9.85;5.10;;;15.00;99.90;;;;;;5089327;27;20332;-68
2022/08/08 04:13:32;;;;;;;7.65;4.32;;;15.00;99.90;;;;;;5056693;27;20340;-69
2022/08/08 04:15:58;;;;;;;9.98;5.07;;;15.00;99.90;;;;;;5071215;27;20464;-69
2022/08/08 04:18:23;;;;;;;9.77;4.75;;;15.00;99.90;;;;;;5071501;27;20050;-68
2022/08/08 04:20:49;;;;;;;8.63;4.47;;;15.00;99.90;;;;;;5087757;28;20042;-69
2022/08/08 04:23:15;;;;;;;8.88;4.72;;;15.10;99.90;;;;;;5089378;27;20059;-69
2022/08/08 04:25:41;;;;;;;8.25;4.80;;;15.10;99.90;;;;;;5090222;27;20384;-68
2022/08/08 04:28:07;;;;;;;7.78;4.18;;;15.10;99.90;;;;;;5091706;27;20262;-69
2022/08/08 04:30:34;;;;;;;7.63;4.82;;;15.10;99.90;;;;;;5088102;27;20138;-68
2022/08/08 04:33:00;;;;;;;10.93;5.15;;;15.10;99.90;;;;;;5072785;27;20693;-68
2022/08/08 04:35:26;;;;;;;11.18;5.50;;;15.20;99.90;;;;;;5091620;27;20081;-68
2022/08/08 04:37:53;;;;;;;9.63;5.00;;;15.20;99.90;;;;;;5088911;27;20054;-68
2022/08/08 04:40:20;;;;;;;8.60;4.70;;;15.30;99.90;;;;;;5070914;27;20392;-68
2022/08/08 04:42:46;;;;;;;7.40;4.50;;;15.30;99.90;;;;;;5088965;27;20047;-69
2022/08/08 04:45:13;;;;;;;10.15;4.65;;;15.30;99.90;;;;;;5088482;27;20049;-69
2022/08/08 04:47:39;;;;;;;15.90;4.32;;;15.40;99.90;;;;;;5085366;27;20638;-69
2022/08/08 04:50:05;;;;;;;10.95;4.68;;;15.40;99.90;;;;;;5070740;27;20415;-68
2022/08/08 04:52:31;;;;;;;10.50;4.40;;;15.40;99.90;;;;;;5069715;27;20110;-68
2022/08/08 04:54:57;;;;;;;9.18;4.93;;;15.50;99.90;;;;;;5064337;27;20050;-69
2022/08/08 04:57:22;;;;;;;8.35;4.38;;;15.50;99.90;;;;;;5090058;27;20224;-69
2022/08/08 04:59:48;;;;;;;11.18;5.03;;;15.50;99.90;;;;;;5052159;28;20155;-69
2022/08/08 05:02:14;;;;;;;9.73;4.30;;;15.60;99.90;;;;;;5067170;28;20179;-69
2022/08/08 05:04:41;;;;;;;7.93;4.40;;;15.70;99.90;;;;;;5062599;28;20468;-69
2022/08/08 05:07:07;;;;;;;5.85;3.95;;;15.70;99.90;;;;;;5085292;28;20611;-69
2022/08/08 05:09:33;;;;;;;7.45;4.35;;;15.70;99.90;;;;;;5084637;28;20282;-69
2022/08/08 05:12:00;;;;;;;7.32;4.15;;;15.80;99.90;;;;;;5079816;28;20341;-68
2022/08/08 05:14:26;;;;;;;8.88;4.03;;;15.80;99.90;;;;;;5086087;28;20051;-67
2022/08/08 05:16:52;;;;;;;8.38;4.05;;;15.90;99.90;;;;;;5085805;28;20381;-68
2022/08/08 05:19:18;;;;;;;8.85;3.78;;;15.90;99.90;;;;;;5065703;28;20492;-68
2022/08/08 05:21:43;;;;;;;7.97;3.78;;;16.00;99.90;;;;;;5063481;28;20035;-67
2022/08/08 05:24:10;;;;;;;9.45;3.78;;;16.00;99.90;;;;;;5086954;28;20067;-67
2022/08/08 05:26:40;;;;;;;12.50;4.55;;;16.00;99.90;;;;;;5061392;28;20040;-67
2022/08/08 05:29:09;;;;;;;8.60;4.10;;;16.10;99.90;;;;;;5067689;28;20035;-67
2022/08/08 05:31:35;;;;;;;6.35;3.65;;;16.00;99.90;;;;;;5067622;28;20039;-67
2022/08/08 05:34:32;;;;;;;8.50;4.05;;;16.10;99.90;;;;;;5064196;28;20097;-67
2022/08/08 05:36:59;;;;;;;7.25;4.18;;;16.10;99.90;;;;;;5095164;27;20051;-68
2022/08/08 05:39:26;;;;;;;6.47;3.60;;;16.10;99.90;;;;;;5090079;28;20156;-68
2022/08/08 05:41:52;;;;;;;8.68;3.78;;;16.20;99.90;;;;;;5090341;28;20191;-69
2022/08/08 05:44:29;;;;;;;8.15;3.95;;;16.20;99.90;;;;;;5057762;28;20047;-69
2022/08/08 05:46:57;;;;;;;7.90;3.40;;;16.30;99.90;;;;;;5072884;28;20257;-69
2022/08/08 05:49:24;;;;;;;10.20;3.55;;;16.40;99.90;;;;;;5065925;28;20558;-69
2022/08/08 05:51:49;;;;;;;8.80;3.05;;;16.60;99.90;;;;;;5065484;28;20079;-68
2022/08/08 05:54:17;;;;;;;8.88;3.35;;;16.60;99.90;;;;;;5070810;28;20127;-68
2022/08/08 05:56:44;;;;;;;6.05;2.97;;;16.80;99.90;;;;;;5073626;28;20222;-68
2022/08/08 05:59:19;;;;;;;4.97;2.72;;;16.90;99.90;;;;;;5090167;28;20042;-68
2022/08/08 06:01:53;;;;;;;10.02;3.13;;;16.90;99.90;;;;;;5091182;28;20380;-68
2022/08/08 06:04:24;;;;;;;8.98;3.60;;;17.00;99.90;;;;;;5090725;28;20126;-68
2022/08/08 06:06:54;;;;;;;6.30;2.90;;;17.10;99.90;;;;;;5090113;28;20028;-68
2022/08/08 06:09:28;;;;;;;10.98;3.00;;;17.10;99.90;;;;;;5075333;28;20513;-68
2022/08/08 06:12:02;;;;;;;7.93;2.90;;;17.30;99.90;;;;;;5070098;28;20484;-68
2022/08/08 06:14:28;;;;;;;10.52;2.88;;;17.20;99.90;;;;;;5093161;28;20075;-68
2022/08/08 06:17:05;;;;;;;6.63;2.83;;;17.10;99.90;;;;;;5093345;28;20039;-68
2022/08/08 06:19:32;;;;;;;10.13;2.85;;;17.20;99.90;;;;;;5076894;28;20440;-68
2022/08/08 06:21:58;;;;;;;8.50;3.15;;;17.40;99.90;;;;;;5093399;28;20455;-68
2022/08/08 06:24:23;;;;;;;4.40;2.38;;;17.80;99.90;;;;;;5076436;28;20233;-68
2022/08/08 06:27:02;;;;;;;5.93;2.20;;;18.30;99.90;;;;;;5093549;28;20036;-68
2022/08/08 06:29:38;;;;;;;7.88;2.50;;;18.70;99.90;;;;;;5067377;28;20515;-68
2022/08/08 06:32:11;;;;;;;6.97;2.42;;;18.60;99.90;;;;;;5093596;28;20157;-68
2022/08/08 06:34:39;;;;;;;6.40;2.50;;;18.40;99.90;;;;;;5093399;28;20464;-68
2022/08/08 06:37:09;;;;;;;5.20;1.80;;;18.60;99.90;;;;;;5093114;28;20195;-68
2022/08/08 06:39:40;;;;;;;6.57;2.10;;;18.70;99.90;;;;;;5075783;28;20051;-68
2022/08/08 06:42:08;;;;;;;7.05;2.38;;;18.60;99.90;;;;;;5068854;28;20095;-68
2022/08/08 06:44:38;;;;;;;6.45;2.05;;;18.60;99.90;;;;;;5063468;28;20051;-68
2022/08/08 06:47:04;;;;;;;6.97;2.38;;;18.70;99.90;;;;;;5067144;28;20524;-68
2022/08/08 06:49:30;;;;;;;5.90;1.95;;;18.60;99.90;;;;;;5074135;28;20118;-69
2022/08/08 06:51:57;;;;;;;5.75;1.88;;;18.60;99.90;;;;;;5091305;28;20558;-68
2022/08/08 06:54:24;;;;;;;7.00;2.50;;;18.60;99.90;;;;;;5093096;28;20119;-68
2022/08/08 06:56:53;;;;;;;7.55;2.42;;;18.80;99.90;;;;;;5066950;28;20047;-69
2022/08/08 06:59:19;;;;;;;7.47;2.50;;;18.70;99.90;;;;;;5092539;28;20605;-68
2022/08/08 07:01:53;;;;;;;6.28;2.42;;;18.70;99.90;;;;;;5091207;28;20134;-68
2022/08/08 07:04:24;;;;;;;5.65;1.92;;;18.60;99.90;;;;;;5092415;28;20031;-68
2022/08/08 07:06:56;;;;;;;9.35;2.33;;;18.60;99.90;;;;;;5092840;28;20209;-68
2022/08/08 07:09:35;;;;;;;7.10;2.20;;;18.60;99.90;;;;;;5092488;28;20086;-68
2022/08/08 07:12:06;;;;;;;5.05;2.10;;;18.70;99.90;;;;;;5092929;28;20497;-68
2022/08/08 07:14:57;;;;;;;6.70;1.80;;;18.80;99.90;;;;;;5093094;28;20044;-68
2022/08/08 07:17:24;;;;;;;6.18;1.75;;;18.70;99.90;;;;;;5092387;28;20089;-68
2022/08/08 07:20:02;;;;;;;8.85;2.00;;;18.70;99.90;;;;;;5092201;28;20114;-68
2022/08/08 07:22:46;;;;;;;7.13;1.60;;;18.80;99.90;;;;;;5092827;28;20104;-68
2022/08/08 07:25:14;;;;;;;6.80;1.52;;;18.80;99.90;;;;;;5075415;28;20489;-68
2022/08/08 07:27:44;;;;;;;7.85;1.90;;;18.90;99.90;;;;;;5074482;28;20036;-68
2022/08/08 07:30:11;;;;;;;6.78;2.13;;;19.00;99.90;;;;;;5075691;28;20367;-68
2022/08/08 07:32:38;;;;;;;5.05;1.77;;;19.20;99.90;;;;;;5090681;28;20245;-68
2022/08/08 07:35:05;;;;;;;4.35;1.42;;;19.20;99.90;;;;;;5090066;28;20044;-68
2022/08/08 07:37:32;;;;;;;7.18;1.38;;;19.30;99.90;;;;;;5088797;28;20226;-68
2022/08/08 07:39:58;;;;;;;7.68;1.45;;;19.40;99.90;;;;;;5071629;28;20609;-68
2022/08/08 07:42:24;;;;;;;5.85;1.30;;;19.50;99.90;;;;;;5089422;28;20479;-69
2022/08/08 07:44:50;;;;;;;5.95;1.67;;;19.60;99.90;;;;;;5086987;28;20046;-68
2022/08/08 07:47:16;;;;;;;4.72;1.30;;;19.80;99.90;;;;;;5063230;28;20031;-69
2022/08/08 07:49:42;;;;;;;6.75;1.02;;;19.90;99.90;;;;;;5089629;28;20104;-68
2022/08/08 07:52:11;;;;;;;8.15;1.30;;;20.00;99.90;;;;;;5088263;28;20657;-68
2022/08/08 07:55:00;;;;;;;4.25;0.70;;;20.00;99.90;;;;;;5080656;28;20238;-68
2022/08/08 07:58:08;;;;;;;4.60;0.80;;;20.00;99.90;;;;;;5052506;28;20560;-68
2022/08/08 08:00:50;;;;;;;6.13;1.55;;;20.10;99.90;;;;;;5086058;28;20600;-68
2022/08/08 08:03:21;;;;;;;4.70;0.93;;;20.20;99.90;;;;;;5059797;28;20042;-68
2022/08/08 08:05:50;;;;;;;6.28;0.88;;;20.70;99.90;;;;;;5086642;28;20038;-67
2022/08/08 08:08:18;;;;;;;6.32;0.50;;;21.00;99.90;;;;;;5087176;28;20036;-68
2022/08/08 08:10:45;;;;;;;3.45;0.50;;;21.20;99.90;;;;;;5065458;28;20043;-67
2022/08/08 08:13:42;;;;;;;4.45;0.60;;;21.10;99.90;;;;;;5058431;28;20490;-67
2022/08/08 08:16:12;;;;;;;3.22;0.30;;;21.50;99.90;;;;;;5069166;28;20154;-67
2022/08/08 08:18:53;;;;;;;4.28;0.40;;;21.40;99.90;;;;;;5085830;28;20122;-67
2022/08/08 08:21:21;;;;;;;3.50;0.40;;;21.70;99.90;;;;;;5062919;28;20036;-68
2022/08/08 08:23:46;;;;;;;4.15;0.50;;;21.80;99.90;;;;;;5063372;28;20350;-67
2022/08/08 08:26:12;;;;;;;2.17;0.30;;;21.80;99.90;;;;;;5086062;28;20456;-68
2022/08/08 08:28:39;;;;;;;3.28;0.47;;;21.80;99.90;;;;;;5067786;28;20401;-67
2022/08/08 08:31:06;;;;;;;3.17;0.30;;;21.80;99.90;;;;;;5086019;28;20179;-68
2022/08/08 08:33:32;;;;;;;3.55;0.30;;;22.10;99.90;;;;;;5087379;28;20039;-68
2022/08/08 08:36:17;;;;;;;2.67;0.43;;;22.30;99.90;;;;;;5072457;28;20580;-68
2022/08/08 08:38:49;;;;;;;5.45;0.55;;;22.20;99.90;;;;;;5075798;28;20126;-67
2022/08/08 08:41:17;;;;;;;4.93;0.40;;;23.20;99.90;;;;;;5090280;28;20073;-68
2022/08/08 08:43:45;;;;;;;4.35;0.40;;;23.30;99.90;;;;;;5072319;28;20043;-67
2022/08/08 08:46:12;;;;;;;3.90;0.30;;;23.70;99.90;;;;;;5064195;28;20333;-67
2022/08/08 08:48:40;;;;;;;2.75;0.50;;;23.80;99.90;;;;;;5059890;28;20130;-67
2022/08/08 08:51:11;;;;;;;3.25;0.43;;;23.90;99.90;;;;;;5080866;28;20180;-67
2022/08/08 08:53:43;;;;;;;2.75;0.25;;;23.70;99.90;;;;;;5088577;28;20915;-67
2022/08/08 08:56:11;;;;;;;1.98;0.30;;;23.50;99.90;;;;;;5079563;28;20044;-66
2022/08/08 08:58:43;;;;;;;3.25;0.40;;;23.70;99.90;;;;;;5091105;27;20276;-67
2022/08/08 09:01:10;;;;;;;;;;;23.50;99.90;;;;;;5092356;28;20077;-67
2022/08/08 09:03:39;;;;;;;4.25;0.30;;;23.20;99.90;;;;;;5081254;27;19931;-67
2022/08/08 09:06:09;;;;;;;3.50;0.40;;;23.40;99.90;;;;;;5109911;27;20031;-68
2022/08/08 09:08:38;;;;;;;3.88;0.30;;;23.40;99.90;;;;;;5091380;27;20374;-67
2022/08/08 09:11:06;;;;;;;28.33;2.80;;;23.30;99.90;;;;;;5074056;28;20046;-67
2022/08/08 09:13:35;;;;;;;17.38;1.80;;;23.30;99.90;;;;;;5061890;28;20043;-67
2022/08/08 09:16:02;;;;;;;7.60;0.52;;;23.10;99.90;;;;;;5074752;28;20480;-68
2022/08/08 09:18:29;;;;;;;6.68;0.57;;;22.80;99.90;;;;;;5093680;28;20095;-68
2022/08/08 09:20:55;;;;;;;4.72;0.40;;;22.70;99.90;;;;;;5094200;28;20072;-68
2022/08/08 09:23:22;;;;;;;8.65;0.50;;;22.60;99.90;;;;;;5095109;28;20512;-67
2022/08/08 09:25:58;;;;;;;3.42;0.30;;;22.60;99.90;;;;;;5094849;28;20241;-68
2022/08/08 09:28:27;;;;;;;4.80;0.40;;;22.60;99.90;;;;;;5061084;28;20274;-68
2022/08/08 09:30:56;;;;;;;10.02;0.75;;;22.50;99.90;;;;;;5093101;28;20515;-68
2022/08/08 09:33:25;;;;;;;2.92;0.30;;;22.40;99.90;;;;;;5076857;28;20291;-67
2022/08/08 09:35:51;;;;;;;1.50;0.20;;;22.30;99.90;;;;;;5060473;28;20143;-68
2022/08/08 09:38:30;;;;;;;2.95;0.30;;;22.20;99.90;;;;;;5092391;28;20204;-67
2022/08/08 09:41:03;;;;;;;4.32;0.30;;;22.30;99.90;;;;;;5076599;28;20043;-68
2022/08/08 09:43:33;;;;;;;3.22;0.30;;;22.40;99.90;;;;;;5092398;28;20047;-69
2022/08/08 09:46:04;;;;;;;1.77;0.20;;;22.30;99.90;;;;;;5090955;28;20037;-69
2022/08/08 09:48:33;;;;;;;4.90;0.20;;;22.50;99.90;;;;;;5063742;28;20370;-69
2022/08/08 09:51:01;;;;;;;3.42;0.20;;;22.50;99.90;;;;;;5091472;28;20039;-68
2022/08/08 09:53:47;;;;;;;1.52;0.17;;;22.60;99.90;;;;;;5057072;28;20131;-68
2022/08/08 09:56:14;;;;;;;2.80;0.30;;;22.70;99.90;;;;;;5091805;28;20043;-68
2022/08/08 09:58:45;;;;;;;4.72;0.30;;;22.70;99.90;;;;;;5075291;28;20134;-68
2022/08/08 10:01:14;;;;;;;3.80;0.30;;;22.80;99.90;;;;;;5092021;28;20050;-69
2022/08/08 10:03:44;;;;;;;2.90;0.20;;;22.90;99.90;;;;;;5074532;28;20058;-68
2022/08/08 10:06:15;;;;;;;2.88;0.30;;;22.80;99.90;;;;;;5090381;28;20138;-68
2022/08/08 10:08:49;;;;;;;2.67;0.25;;;22.90;99.90;;;;;;5092020;28;20118;-68
2022/08/08 10:11:19;;;;;;;2.67;0.30;;;22.70;99.90;;;;;;5075584;28;20486;-68
2022/08/08 10:13:58;;;;;;;3.75;0.30;;;22.90;99.90;;;;;;5074103;28;20138;-67
2022/08/08 10:16:35;;;;;;;3.47;0.40;;;22.80;99.90;;;;;;5076492;28;20091;-67
2022/08/08 10:19:03;;;;;;;2.63;0.30;;;22.90;99.90;;;;;;5093716;28;20209;-69
2022/08/08 10:21:35;;;;;;;3.65;0.30;;;22.80;99.90;;;;;;5095920;27;20039;-68
2022/08/08 10:24:05;;;;;;;3.60;0.30;;;23.00;99.90;;;;;;5095830;27;20039;-68
2022/08/08 10:26:51;;;;;;;2.10;0.30;;;22.90;99.90;;;;;;5094578;27;20035;-68
2022/08/08 10:29:22;;;;;;;2.83;0.30;;;23.00;99.90;;;;;;5094520;27;20563;-68
2022/08/08 10:34:42;;;;;;;2.83;0.30;;;22.90;99.90;;;;;;5095353;27;20108;-68
2022/08/08 10:37:09;;;;;;;6.53;0.40;;;22.90;99.90;;;;;;5095592;27;20047;-68
2022/08/08 10:39:43;;;;;;;3.08;0.60;;;22.80;99.90;;;;;;5094754;27;20051;-68
2022/08/08 10:42:12;;;;;;;2.88;0.20;;;22.70;99.90;;;;;;5083250;27;20684;-68
2022/08/08 10:44:39;;;;;;;3.72;0.30;;;22.80;99.90;;;;;;5082843;27;20541;-69
2022/08/08 10:47:13;;;;;;;4.13;0.30;;;22.80;99.90;;;;;;5080376;27;20339;-68
2022/08/08 10:49:49;;;;;;;5.40;0.30;;;22.70;99.90;;;;;;5096694;27;20035;-68
2022/08/08 10:52:26;;;;;;;2.45;0.32;;;22.50;99.90;;;;;;5096210;27;20119;-68
2022/08/08 10:55:06;;;;;;;2.67;0.40;;;22.50;99.90;;;;;;5096522;27;20204;-69
2022/08/08 10:57:44;;;;;;;2.83;0.22;;;22.60;99.90;;;;;;5095995;27;20042;-67
2022/08/08 11:00:11;;;;;;;124.60;13.43;;;22.70;99.90;;;;;;5078679;27;20059;-68
2022/08/08 11:02:38;;;;;;;9.95;0.82;;;22.70;99.90;;;;;;5079419;27;20606;-68
2022/08/08 11:05:07;;;;;;;24.20;1.90;;;22.70;99.90;;;;;;5096518;27;20039;-68
2022/08/08 11:07:39;;;;;;;9.45;0.60;;;22.70;99.90;;;;;;5063057;27;20302;-68
2022/08/08 11:10:06;;;;;;;5.43;0.40;;;22.60;99.90;;;;;;5096179;27;20485;-68
2022/08/08 11:12:44;;;;;;;3.75;0.32;;;22.60;99.90;;;;;;5079290;27;20794;-68
2022/08/08 11:15:13;;;;;;;3.42;0.30;;;22.50;99.90;;;;;;5096530;27;20047;-69
2022/08/08 11:17:40;;;;;;;3.88;0.30;;;22.40;99.90;;;;;;5096999;27;20043;-67
2022/08/08 11:20:08;;;;;;;1.52;0.25;;;22.30;99.90;;;;;;5096043;27;20214;-68
2022/08/08 11:22:35;;;;;;;1.60;0.30;;;22.30;99.90;;;;;;5096244;27;20434;-68
2022/08/08 11:25:05;;;;;;;4.93;0.30;;;22.30;99.90;;;;;;5079126;27;20249;-68
2022/08/08 11:27:33;;;;;;;4.32;0.35;;;22.30;99.90;;;;;;5079177;27;20673;-69
2022/08/08 11:30:02;;;;;;;2.22;0.30;;;22.10;99.90;;;;;;5079065;27;20141;-68
2022/08/08 11:32:30;;;;;;;3.53;0.30;;;22.30;99.90;;;;;;5078628;27;20103;-69
2022/08/08 11:35:06;;;;;;;4.72;0.30;;;22.30;99.90;;;;;;5079313;27;20082;-68
2022/08/08 11:37:33;;;;;;;2.05;0.20;;;22.40;99.90;;;;;;5095476;27;20043;-68
2022/08/08 11:40:01;;;;;;;2.17;0.30;;;22.40;99.90;;;;;;5079015;27;20047;-68
2022/08/08 11:42:27;;;;;;;1.70;0.20;;;22.50;99.90;;;;;;5062080;27;20054;-69
2022/08/08 11:44:56;;;;;;;2.85;0.20;;;22.60;99.90;;;;;;5095388;27;20179;-68
2022/08/08 11:47:23;;;;;;;3.75;0.40;;;22.60;99.90;;;;;;5095478;27;20123;-68
2022/08/08 11:50:02;;;;;;;9.65;0.40;;;22.70;99.90;;;;;;5095186;27;20039;-68
2022/08/08 11:52:28;;;;;;;15.52;1.38;;;22.90;99.90;;;;;;5095865;27;20252;-69
2022/08/08 11:54:54;;;;;;;3.03;0.20;;;22.80;99.90;;;;;;5095081;27;20043;-69
2022/08/08 11:57:24;;;;;;;9.45;1.00;;;22.60;99.90;;;;;;5094725;27;20104;-68
2022/08/08 12:00:03;;;;;;;18.05;1.63;;;22.70;99.90;;;;;;5094585;27;20086;-68
2022/08/08 12:02:30;;;;;;;4.20;0.30;;;22.80;99.90;;;;;;5078147;27;20440;-69
2022/08/08 12:05:07;;;;;;;26.92;2.92;;;22.80;99.90;;;;;;5078130;27;20043;-68
2022/08/08 12:08:03;;;;;;;3.42;0.30;;;22.80;99.90;;;;;;5078007;27;20104;-69
2022/08/08 12:10:29;;;;;;;4.60;0.40;;;22.80;99.90;;;;;;5073878;27;20066;-68
2022/08/08 12:13:03;;;;;;;1.83;0.30;;;22.80;99.90;;;;;;5060957;27;20066;-69
2022/08/08 12:15:34;;;;;;;1.90;0.20;;;22.70;99.90;;;;;;5094639;27;20039;-68
2022/08/08 12:18:11;;;;;;;3.58;0.22;;;22.70;99.90;;;;;;5077725;27;20501;-68
2022/08/08 12:20:38;;;;;;;6.40;0.60;;;22.70;99.90;;;;;;5094979;27;20047;-69
2022/08/08 12:23:04;;;;;;;6.95;0.65;;;23.00;99.90;;;;;;5094694;27;20486;-68
2022/08/08 12:25:32;;;;;;;10.77;0.85;;;23.10;99.90;;;;;;5077612;27;20035;-68
2022/08/08 12:28:13;;;;;;;4.60;0.50;;;23.10;99.90;;;;;;5094433;27;20255;-68
2022/08/08 12:30:40;;;;;;;3.72;0.22;;;23.30;99.90;;;;;;5095541;27;20092;-68
2022/08/08 12:33:39;;;;;;;3.03;0.30;;;23.20;99.90;;;;;;5094898;27;20573;-69
2022/08/08 12:36:12;;;;;;;5.40;0.40;;;23.40;99.90;;;;;;5086717;27;20258;-68
2022/08/08 12:38:48;;;;;;;5.85;0.32;;;23.40;99.90;;;;;;5081471;27;20045;-69
2022/08/08 12:41:14;;;;;;;1.83;0.28;;;23.70;99.90;;;;;;5097891;27;20291;-68
2022/08/08 12:43:40;;;;;;;1.95;0.20;;;23.60;99.90;;;;;;5080499;27;20031;-67
2022/08/08 12:46:16;;;;;;;3.28;0.30;;;23.60;99.90;;;;;;5097358;27;20497;-68
2022/08/08 12:48:53;;;;;;;1.55;0.20;;;24.00;99.90;;;;;;5081274;27;20042;-68
2022/08/08 12:51:19;;;;;;;1.73;0.13;;;24.40;99.90;;;;;;5097387;27;20047;-69
2022/08/08 12:54:00;;;;;;;2.05;0.20;;;24.40;99.90;;;;;;5098247;27;20225;-69
2022/08/08 12:56:37;;;;;;;1.98;0.10;;;24.20;99.90;;;;;;5097779;27;20122;-69
2022/08/08 12:59:24;;;;;;;3.65;0.30;;;24.00;99.90;;;;;;5097212;27;20090;-69
2022/08/08 13:01:56;;;;;;;1.73;0.20;;;24.10;99.90;;;;;;5096716;27;20078;-68
2022/08/08 13:04:28;;;;;;;1.70;0.10;;;24.30;99.90;;;;;;5097563;27;20085;-68
2022/08/08 13:07:08;;;;;;;3.70;0.20;;;24.30;99.90;;;;;;5096851;27;20507;-68
2022/08/08 13:09:45;;;;;;;2.63;0.30;;;24.00;99.90;;;;;;5097288;28;20527;-68
2022/08/08 13:12:39;;;;;;;5.63;0.55;;;23.90;99.90;;;;;;5080935;27;20043;-68
2022/08/08 13:15:16;;;;;;;5.15;0.30;;;23.60;99.90;;;;;;5074929;28;20123;-68
2022/08/08 13:17:43;;;;;;;2.80;0.25;;;23.30;99.90;;;;;;5080585;28;20043;-68
2022/08/08 13:20:27;;;;;;;1.95;0.20;;;23.20;99.90;;;;;;5081404;28;20267;-69
2022/08/08 13:22:54;;;;;;;2.08;0.22;;;23.10;99.90;;;;;;5097313;28;20050;-68
2022/08/08 13:25:20;;;;;;;3.38;0.45;;;23.10;99.90;;;;;;5081809;28;20057;-68
2022/08/08 13:27:54;;;;;;;3.85;0.20;;;23.10;99.90;;;;;;5080663;28;20035;-68
2022/08/08 13:30:24;;;;;;;3.50;0.30;;;23.30;99.90;;;;;;5081236;28;20091;-68